createdAt,value
2019-02-04T00:00:13.546Z,92.50
2019-02-04T00:05:17.811Z,92.80
2019-02-04T00:10:21.769Z,92.90
2019-02-04T00:15:25.645Z,92.80
2019-02-04T00:20:29.529Z,93.10
2019-02-04T00:25:33.434Z,92.90
2019-02-04T00:30:37.351Z,93.10
2019-02-04T00:35:41.386Z,93.20
2019-02-04T00:40:45.729Z,93.20
2019-02-04T00:45:49.639Z,93.20
2019-02-04T00:50:53.551Z,93.30
2019-02-04T00:55:57.854Z,93.10
2019-02-04T01:01:01.804Z,93.20
2019-02-04T01:06:05.903Z,93.50
2019-02-04T01:11:10.171Z,93.40
2019-02-04T01:16:13.944Z,93.10
2019-02-04T01:21:17.728Z,93.20
2019-02-04T01:26:21.519Z,93.30
2019-02-04T01:31:25.293Z,93.40
2019-02-04T01:36:29.120Z,93.00
2019-02-04T01:41:33.437Z,93.10
2019-02-04T01:46:37.447Z,93.30
2019-02-04T01:51:41.208Z,93.30
2019-02-04T01:56:45.053Z,93.50
2019-02-04T02:01:48.868Z,93.70
2019-02-04T02:06:52.642Z,93.40
2019-02-04T02:11:56.679Z,93.60
2019-02-04T02:17:00.822Z,93.60
2019-02-04T02:22:04.908Z,93.50
2019-02-04T02:27:08.760Z,93.40
2019-02-04T02:32:12.531Z,93.40
2019-02-04T02:37:16.346Z,93.30
2019-02-04T02:42:20.198Z,93.30
2019-02-04T02:47:23.959Z,93.10
2019-02-04T02:52:28.091Z,93.10
2019-02-04T02:57:32.003Z,93.10
2019-02-04T03:02:35.730Z,93.00
2019-02-04T03:07:39.545Z,93.30
2019-02-04T03:12:43.387Z,93.30
2019-02-04T03:17:52.066Z,93.70
2019-02-04T03:22:52.668Z,93.40
2019-02-04T03:27:57.131Z,93.20
2019-02-04T03:33:01.342Z,93.10
2019-02-04T03:38:05.205Z,93.20
2019-02-04T03:43:08.938Z,93.30
2019-02-04T03:48:12.681Z,93.30
2019-02-04T03:53:16.648Z,93.30
2019-02-04T03:58:20.401Z,93.30
2019-02-04T04:03:24.450Z,93.30
2019-02-04T04:08:28.151Z,93.30
2019-02-04T04:13:31.862Z,93.40
2019-02-04T04:18:35.553Z,93.40
2019-02-04T04:23:39.285Z,93.40
2019-02-04T04:28:42.962Z,93.40
2019-02-04T04:33:46.705Z,93.40
2019-02-04T04:38:50.378Z,93.50
2019-02-04T04:43:54.046Z,93.50
2019-02-04T04:48:57.760Z,93.50
2019-02-04T04:54:01.493Z,93.50
2019-02-04T04:59:05.749Z,93.60
2019-02-04T05:04:09.801Z,93.50
2019-02-04T05:09:13.487Z,93.50
2019-02-04T05:14:17.181Z,93.60
2019-02-04T05:19:20.932Z,93.60
2019-02-04T05:24:24.615Z,93.70
2019-02-04T05:29:28.302Z,93.70
2019-02-04T05:34:31.975Z,93.70
2019-02-04T05:39:35.938Z,93.70
2019-02-04T05:44:39.610Z,93.70
2019-02-04T05:49:43.297Z,93.60
2019-02-04T05:54:46.977Z,93.70
2019-02-04T05:59:50.657Z,93.70
2019-02-04T06:04:54.614Z,93.70
2019-02-04T06:09:58.293Z,93.80
2019-02-04T06:15:01.958Z,93.80
2019-02-04T06:20:07.394Z,93.80
2019-02-04T06:25:11.155Z,93.90
2019-02-04T06:30:15.086Z,93.90
2019-02-04T06:35:19.132Z,94.00
2019-02-04T06:40:23.173Z,94.00
2019-02-04T06:45:26.874Z,94.00
2019-02-04T06:50:30.583Z,94.00
2019-02-04T06:55:34.461Z,94.00
2019-02-04T07:00:38.158Z,94.00
2019-02-04T07:05:44.013Z,94.10
2019-02-04T07:10:47.234Z,94.10
2019-02-04T07:15:50.907Z,94.00
2019-02-04T07:20:54.669Z,94.00
2019-02-04T07:25:58.340Z,94.10
2019-02-04T07:31:02.081Z,94.10
2019-02-04T07:36:06.089Z,94.00
2019-02-04T07:41:09.775Z,94.10
2019-02-04T07:46:13.710Z,94.10
2019-02-04T07:51:17.470Z,94.10
2019-02-04T07:56:21.438Z,93.90
2019-02-04T08:01:25.117Z,93.90
2019-02-04T08:06:29.085Z,93.90
2019-02-04T08:11:32.766Z,94.10
2019-02-04T08:16:36.438Z,93.90
2019-02-04T08:21:40.141Z,93.60
2019-02-04T08:26:43.822Z,93.60
2019-02-04T08:31:47.505Z,93.60
2019-02-04T08:36:51.205Z,93.50
2019-02-04T08:41:54.900Z,93.40
2019-02-04T08:46:58.667Z,93.60
2019-02-04T08:52:02.428Z,93.30
2019-02-04T08:57:06.285Z,93.20
2019-02-04T09:02:10.062Z,93.10
2019-02-04T09:07:13.815Z,93.00
2019-02-04T09:12:17.520Z,92.90
2019-02-04T09:17:21.290Z,92.80
2019-02-04T09:22:25.265Z,92.70
2019-02-04T09:27:29.077Z,92.40
2019-02-04T09:32:32.797Z,92.30
2019-02-04T09:37:36.470Z,92.10
2019-02-04T09:42:40.427Z,91.60
2019-02-04T09:47:44.413Z,91.70
2019-02-04T09:52:48.164Z,91.90
2019-02-04T09:57:51.902Z,92.50
2019-02-04T10:02:55.813Z,91.60
2019-02-04T10:07:59.493Z,91.20
2019-02-04T10:13:03.233Z,91.50
2019-02-04T10:18:07.901Z,91.40
2019-02-04T10:23:12.045Z,91.00
2019-02-04T10:28:15.979Z,90.90
2019-02-04T10:33:20.564Z,90.70
2019-02-04T10:38:24.464Z,90.50
2019-02-04T10:43:28.432Z,90.10
2019-02-04T10:48:32.172Z,89.80
2019-02-04T10:53:35.942Z,89.40
2019-02-04T10:58:39.869Z,90.20
2019-02-04T11:03:43.621Z,88.00
2019-02-04T11:08:47.381Z,88.20
2019-02-04T11:13:51.168Z,87.60
2019-02-04T11:18:54.892Z,86.00
2019-02-04T11:23:58.977Z,84.90
2019-02-04T11:29:02.726Z,85.10
2019-02-04T11:34:06.677Z,83.90
2019-02-04T11:39:10.625Z,84.20
2019-02-04T11:44:14.472Z,83.50
2019-02-04T11:49:18.392Z,82.50
2019-02-04T11:54:22.179Z,82.50
2019-02-04T11:59:25.965Z,82.10
2019-02-04T12:04:29.842Z,80.80
2019-02-04T12:09:33.517Z,81.10
2019-02-04T12:14:37.217Z,81.30
2019-02-04T12:19:41.014Z,78.90
2019-02-04T12:24:45.149Z,77.00
2019-02-04T12:29:48.830Z,77.80
2019-02-04T12:34:52.497Z,77.20
2019-02-04T12:39:56.181Z,76.90
2019-02-04T12:44:59.848Z,76.40
2019-02-04T12:50:04.414Z,74.80
2019-02-04T12:55:09.827Z,75.20
2019-02-04T13:00:19.165Z,75.50
2019-02-04T13:05:28.608Z,74.10
2019-02-04T13:10:32.422Z,70.20
2019-02-04T13:15:36.185Z,68.90
2019-02-04T13:20:40.097Z,68.50
2019-02-04T13:25:43.962Z,68.20
2019-02-04T13:30:48.082Z,67.70
2019-02-04T13:35:52.101Z,68.40
2019-02-04T13:41:07.216Z,67.70
2019-02-04T13:46:01.477Z,65.40
2019-02-04T13:51:05.202Z,65.60
2019-02-04T13:56:08.965Z,64.10
2019-02-04T14:01:12.849Z,63.40
2019-02-04T14:06:16.561Z,64.20
2019-02-04T14:11:20.297Z,64.10
2019-02-04T14:16:24.335Z,65.20
2019-02-04T14:21:28.103Z,66.10
2019-02-04T14:26:31.926Z,66.00
2019-02-04T14:31:35.686Z,66.70
2019-02-04T14:36:39.622Z,66.60
2019-02-04T14:41:43.334Z,65.90
2019-02-04T14:47:23.754Z,66.60
2019-02-04T14:53:04.430Z,66.90
2019-02-04T14:58:59.470Z,66.80
2019-02-04T15:04:43.296Z,67.50
2019-02-04T15:10:08.574Z,68.20
2019-02-04T15:15:41.526Z,68.70
2019-02-04T15:21:08.960Z,69.60
2019-02-04T15:26:42.098Z,70.30
2019-02-04T15:32:13.496Z,71.40
2019-02-04T15:37:29.470Z,72.00
2019-02-04T15:43:12.649Z,73.40
2019-02-04T15:48:43.166Z,74.40
2019-02-04T15:53:47.014Z,75.20
2019-02-04T15:58:50.895Z,76.20
2019-02-04T16:03:54.632Z,77.00
2019-02-04T16:08:58.365Z,78.00
2019-02-04T16:14:02.291Z,79.10
2019-02-04T16:19:06.061Z,79.90
2019-02-04T16:24:10.057Z,81.00
2019-02-04T16:29:13.980Z,81.30
2019-02-04T16:34:17.984Z,81.60
2019-02-04T16:39:21.870Z,81.80
2019-02-04T16:44:25.635Z,82.00
2019-02-04T16:49:29.493Z,82.80
2019-02-04T16:54:33.262Z,82.70
2019-02-04T16:59:37.243Z,83.10
2019-02-04T17:04:44.493Z,83.80
2019-02-04T17:09:48.339Z,84.20
2019-02-04T17:14:52.119Z,84.60
2019-02-04T17:19:55.824Z,83.90
2019-02-04T17:24:59.578Z,83.50
2019-02-04T17:30:03.444Z,83.50
2019-02-04T17:35:07.605Z,83.70
2019-02-04T17:40:14.582Z,84.00
2019-02-04T17:45:18.425Z,84.10
2019-02-04T17:50:22.499Z,84.30
2019-02-04T17:55:26.819Z,84.20
2019-02-04T18:00:34.616Z,84.50
2019-02-04T18:05:38.532Z,85.20
2019-02-04T18:10:42.381Z,85.40
2019-02-04T18:15:46.093Z,85.40
2019-02-04T18:20:49.916Z,85.60
2019-02-04T18:25:53.668Z,86.00
2019-02-04T18:30:57.496Z,86.20
2019-02-04T18:36:01.198Z,86.40
2019-02-04T18:41:05.234Z,86.40
2019-02-04T18:46:09.110Z,86.70
2019-02-04T18:51:13.191Z,86.70
2019-02-04T18:56:17.014Z,87.00
2019-02-04T19:01:20.835Z,87.10
2019-02-04T19:06:24.535Z,87.10
2019-02-04T19:11:28.594Z,87.30
2019-02-04T19:16:32.447Z,87.40
2019-02-04T19:21:38.269Z,87.20
2019-02-04T19:26:41.634Z,87.20
2019-02-04T19:31:45.394Z,87.10
2019-02-04T19:36:49.176Z,87.10
2019-02-04T19:41:52.916Z,87.20
2019-02-04T19:46:56.938Z,87.10
2019-02-04T19:52:00.655Z,86.90
2019-02-04T19:57:04.787Z,87.00
2019-02-04T20:02:08.522Z,86.80
2019-02-04T20:07:12.353Z,86.40
2019-02-04T20:12:16.399Z,86.30
2019-02-04T20:17:20.218Z,86.40
2019-02-04T20:22:23.938Z,86.10
2019-02-04T20:27:27.752Z,85.80
2019-02-04T20:32:31.540Z,85.70
2019-02-04T20:37:35.539Z,85.50
2019-02-04T20:42:39.335Z,85.90
2019-02-04T20:47:43.102Z,85.90
2019-02-04T20:52:46.839Z,85.90
2019-02-04T20:57:50.724Z,86.00
2019-02-04T21:02:54.774Z,85.50
2019-02-04T21:07:58.533Z,84.90
2019-02-04T21:13:02.270Z,84.50
2019-02-04T21:18:06.464Z,84.70
2019-02-04T21:23:10.154Z,84.50
2019-02-04T21:28:14.070Z,84.20
2019-02-04T21:33:17.929Z,84.30
2019-02-04T21:38:21.678Z,84.10
2019-02-04T21:43:25.407Z,84.20
2019-02-04T21:48:29.322Z,84.30
2019-02-04T21:53:33.087Z,84.60
2019-02-04T21:58:36.805Z,84.50
2019-02-04T22:03:40.538Z,84.60
2019-02-04T22:08:44.279Z,84.70
2019-02-04T22:13:48.133Z,84.60
2019-02-04T22:18:51.895Z,84.60
2019-02-04T22:23:55.673Z,84.50
2019-02-04T22:28:59.388Z,84.50
2019-02-04T22:34:03.253Z,84.60
2019-02-04T22:39:08.977Z,84.30
2019-02-04T22:44:12.648Z,84.20
2019-02-04T22:49:16.323Z,84.10
2019-02-04T22:54:19.993Z,84.10
2019-02-04T22:59:23.664Z,84.00
2019-02-04T23:04:27.354Z,84.20
2019-02-04T23:09:31.017Z,83.80
2019-02-04T23:14:34.685Z,83.70
2019-02-04T23:19:38.630Z,83.20
2019-02-04T23:24:42.315Z,83.10
2019-02-04T23:29:45.991Z,82.30
2019-02-04T23:34:49.677Z,83.10
2019-02-04T23:39:53.350Z,82.90
2019-02-04T23:44:57.012Z,82.80
2019-02-04T23:50:00.685Z,83.20
2019-02-04T23:55:05.286Z,83.00
